Time,TemperatureF,DewpointF,PressureIn,WindDirection,WindDirectionDegrees,WindSpeedMPH,WindSpeedGustMPH,Humidity,HourlyPrecipIn,Conditions,Clouds,dailyrainin,SolarRadiationWatts/m^2,SoftwareType,DateUTC
2013-05-05 00:02:00,36.0,34.0,-100.00,NNE,15,5.0,11.0,92,0.00,,,0.06,0.000000,,2013-05-05 04:02:00,
2013-05-05 00:12:00,36.0,34.0,-100.00,NNE,13,4.0,10.0,92,0.00,,,0.04,0.000000,,2013-05-05 04:12:00,
2013-05-05 00:33:00,36.0,34.0,-100.00,NNE,13,4.0,10.0,92,0.00,,,0.04,0.000000,,2013-05-05 04:33:00,
2013-05-05 00:43:00,36.0,34.0,-100.00,NNE,13,4.0,10.0,92,0.00,,,0.04,0.000000,,2013-05-05 04:43:00,
2013-05-05 00:53:00,36.0,34.0,-100.00,NNE,13,4.0,10.0,92,0.00,,,0.04,0.000000,,2013-05-05 04:53:00,
2013-05-05 01:02:00,36.0,34.0,-100.00,NNE,13,4.0,10.0,92,0.00,,,0.04,0.000000,,2013-05-05 05:02:00,
2013-05-05 01:12:00,36.0,34.0,-100.00,NNE,12,4.0,10.0,93,0.00,,,0.04,0.000000,,2013-05-05 05:12:00,
2013-05-05 01:42:00,36.0,34.0,-100.00,NNE,12,4.0,10.0,93,0.00,,,0.04,0.000000,,2013-05-05 05:42:00,
2013-05-05 01:52:00,36.0,34.0,-100.00,NNE,12,4.0,10.0,93,0.00,,,0.04,0.000000,,2013-05-05 05:52:00,
2013-05-05 02:01:00,36.0,34.0,-100.00,NNE,12,4.0,10.0,93,0.00,,,0.04,0.000000,,2013-05-05 06:01:00,
2013-05-05 02:42:00,35.0,33.0,-100.00,NNE,13,4.0,8.0,94,0.00,,,0.04,0.000000,,2013-05-05 06:42:00,
2013-05-05 02:52:00,35.0,33.0,-100.00,NNE,13,4.0,8.0,94,0.00,,,0.04,0.000000,,2013-05-05 06:52:00,
2013-05-05 03:01:00,35.0,33.0,-100.00,NNE,13,4.0,8.0,94,0.00,,,0.04,0.000000,,2013-05-05 07:01:00,
2013-05-05 03:11:00,35.0,33.0,-100.00,NNE,13,4.0,8.0,94,0.00,,,0.04,0.000000,,2013-05-05 07:11:00,
2013-05-05 03:42:00,35.0,33.0,-100.00,NNE,21,4.0,10.0,94,0.00,,,0.01,0.000000,,2013-05-05 07:42:00,
2013-05-05 03:52:00,35.0,33.0,-100.00,NNE,21,4.0,10.0,94,0.00,,,0.01,0.000000,,2013-05-05 07:52:00,
2013-05-05 04:02:00,35.0,33.0,-100.00,NNE,21,4.0,10.0,94,0.00,,,0.01,0.000000,,2013-05-05 08:02:00,
2013-05-05 04:11:00,35.0,33.0,-100.00,NNE,21,4.0,10.0,94,0.00,,,0.01,0.000000,,2013-05-05 08:11:00,
2013-05-05 04:32:00,34.0,33.0,-100.00,NNE,23,3.0,7.0,95,0.00,,,0.00,0.000000,,2013-05-05 08:32:00,
2013-05-05 04:42:00,34.0,33.0,-100.00,NNE,23,3.0,7.0,95,0.00,,,0.00,0.000000,,2013-05-05 08:42:00,
2013-05-05 04:53:00,34.0,33.0,-100.00,NNE,23,3.0,7.0,95,0.00,,,0.00,0.000000,,2013-05-05 08:53:00,
2013-05-05 05:01:00,34.0,33.0,-100.00,NNE,23,3.0,7.0,95,0.00,,,0.00,0.000000,,2013-05-05 09:01:00,
2013-05-05 05:11:00,34.0,33.0,-100.00,NNE,23,3.0,7.0,95,0.00,,,0.00,0.000000,,2013-05-05 09:11:00,
2013-05-05 05:12:00,34.0,33.0,-100.00,NNE,28,3.0,7.0,95,0.00,,,0.00,0.000000,,2013-05-05 09:12:00,
2013-05-05 05:42:00,34.0,33.0,-100.00,NNE,28,3.0,7.0,95,0.00,,,0.00,0.000000,,2013-05-05 09:42:00,
2013-05-05 05:52:00,34.0,33.0,-100.00,NNE,28,3.0,7.0,95,0.00,,,0.00,0.000000,,2013-05-05 09:52:00,
2013-05-05 06:03:00,34.0,33.0,-100.00,NNE,28,3.0,7.0,95,0.00,,,0.00,0.000000,,2013-05-05 10:03:00,
2013-05-05 06:12:00,34.0,33.0,-100.00,NNE,30,3.0,8.0,96,0.00,,,0.00,0.000000,,2013-05-05 10:12:00,
2013-05-05 06:32:00,34.0,33.0,-100.00,NNE,30,3.0,8.0,96,0.00,,,0.00,0.000000,,2013-05-05 10:32:00,
2013-05-05 06:42:00,34.0,33.0,-100.00,NNE,30,3.0,8.0,96,0.00,,,0.00,0.000000,,2013-05-05 10:42:00,
2013-05-05 06:53:00,34.0,33.0,-100.00,NNE,30,3.0,8.0,96,0.00,,,0.00,0.000000,,2013-05-05 10:53:00,
2013-05-05 07:01:00,34.0,33.0,-100.00,NNE,30,3.0,8.0,96,0.00,,,0.00,0.000000,,2013-05-05 11:01:00,
2013-05-05 07:32:00,34.0,33.0,-100.00,NE,40,3.0,6.0,95,0.00,,,0.00,14.000000,,2013-05-05 11:32:00,
2013-05-05 07:42:00,34.0,33.0,-100.00,NE,40,3.0,6.0,95,0.00,,,0.00,14.000000,,2013-05-05 11:42:00,
2013-05-05 07:52:00,34.0,33.0,-100.00,NE,40,3.0,6.0,95,0.00,,,0.00,14.000000,,2013-05-05 11:52:00,
2013-05-05 08:02:00,34.0,33.0,-100.00,NE,40,3.0,6.0,95,0.00,,,0.00,14.000000,,2013-05-05 12:02:00,
2013-05-05 08:11:00,34.0,33.0,-100.00,NE,40,3.0,6.0,95,0.00,,,0.00,14.000000,,2013-05-05 12:11:00,
2013-05-05 09:42:00,42.0,36.0,-100.00,NNE,23,4.0,7.0,80,-99.99,,,0.00,350.000000,,2013-05-05 13:42:00,
2013-05-05 09:52:00,42.0,36.0,-100.00,NNE,23,4.0,7.0,80,-99.99,,,0.00,350.000000,,2013-05-05 13:52:00,
2013-05-05 10:02:00,42.0,36.0,-100.00,NNE,23,4.0,7.0,80,-99.99,,,0.00,350.000000,,2013-05-05 14:02:00,
2013-05-05 10:11:00,42.0,36.0,-100.00,NNE,23,4.0,7.0,80,-99.99,,,0.00,350.000000,,2013-05-05 14:11:00,
2013-05-05 10:42:00,49.0,38.0,-100.00,NNE,33,3.0,7.0,66,0.00,,,0.00,529.000000,,2013-05-05 14:42:00,
2013-05-05 10:52:00,49.0,38.0,-100.00,NNE,33,3.0,7.0,66,0.00,,,0.00,529.000000,,2013-05-05 14:52:00,
2013-05-05 11:02:00,49.0,38.0,-100.00,NNE,33,3.0,7.0,66,0.00,,,0.00,529.000000,,2013-05-05 15:02:00,
2013-05-05 11:11:00,49.0,38.0,-100.00,NNE,33,3.0,7.0,66,0.00,,,0.00,529.000000,,2013-05-05 15:11:00,
2013-05-05 11:12:00,54.0,38.0,-100.00,ENE,61,3.0,7.0,54,0.00,,,0.00,673.000000,,2013-05-05 15:12:00,
2013-05-05 11:33:00,54.0,38.0,-100.00,ENE,61,3.0,7.0,54,0.00,,,0.00,673.000000,,2013-05-05 15:33:00,
2013-05-05 11:43:00,54.0,38.0,-100.00,ENE,61,3.0,7.0,54,0.00,,,0.00,673.000000,,2013-05-05 15:43:00,
2013-05-05 11:53:00,54.0,38.0,-100.00,ENE,61,3.0,7.0,54,0.00,,,0.00,673.000000,,2013-05-05 15:53:00,
2013-05-05 12:03:00,54.0,38.0,-100.00,ENE,61,3.0,7.0,54,0.00,,,0.00,673.000000,,2013-05-05 16:03:00,
2013-05-05 12:12:00,58.0,38.0,-100.00,ENE,74,5.0,10.0,48,0.00,,,0.00,848.000000,,2013-05-05 16:12:00,
2013-05-05 12:42:00,58.0,38.0,-100.00,ENE,74,5.0,10.0,48,0.00,,,0.00,848.000000,,2013-05-05 16:42:00,
2013-05-05 12:53:00,58.0,38.0,-100.00,ENE,74,5.0,10.0,48,0.00,,,0.00,848.000000,,2013-05-05 16:53:00,
2013-05-05 13:02:00,58.0,38.0,-100.00,ENE,74,5.0,10.0,48,0.00,,,0.00,848.000000,,2013-05-05 17:02:00,
2013-05-05 13:12:00,59.0,39.0,-100.00,ENE,59,4.0,10.0,47,0.00,,,0.00,877.000000,,2013-05-05 17:12:00,
2013-05-05 13:32:00,59.0,39.0,-100.00,ENE,59,4.0,10.0,47,0.00,,,0.00,877.000000,,2013-05-05 17:32:00,
2013-05-05 13:42:00,59.0,39.0,-100.00,ENE,59,4.0,10.0,47,0.00,,,0.00,877.000000,,2013-05-05 17:42:00,
2013-05-05 13:52:00,59.0,39.0,-100.00,ENE,59,4.0,10.0,47,0.00,,,0.00,877.000000,,2013-05-05 17:52:00,
2013-05-05 14:01:00,59.0,39.0,-100.00,ENE,59,4.0,10.0,47,0.00,,,0.00,877.000000,,2013-05-05 18:01:00,
2013-05-05 14:42:00,59.0,39.0,-100.00,ENE,74,5.0,9.0,47,0.00,,,0.00,816.000000,,2013-05-05 18:42:00,
2013-05-05 14:52:00,59.0,39.0,-100.00,ENE,74,5.0,9.0,47,0.00,,,0.00,816.000000,,2013-05-05 18:52:00,
2013-05-05 15:01:00,59.0,39.0,-100.00,ENE,74,5.0,9.0,47,0.00,,,0.00,816.000000,,2013-05-05 19:01:00,
2013-05-05 15:11:00,59.0,39.0,-100.00,ENE,74,5.0,9.0,47,0.00,,,0.00,816.000000,,2013-05-05 19:11:00,
2013-05-05 16:42:00,60.0,39.0,-100.00,NE,45,5.0,9.0,45,-99.99,,,0.00,763.000000,,2013-05-05 20:42:00,
2013-05-05 16:52:00,60.0,39.0,-100.00,NE,45,5.0,9.0,45,-99.99,,,0.00,763.000000,,2013-05-05 20:52:00,
2013-05-05 17:02:00,60.0,39.0,-100.00,NE,45,5.0,9.0,45,-99.99,,,0.00,763.000000,,2013-05-05 21:02:00,
2013-05-05 17:11:00,60.0,39.0,-100.00,NE,45,5.0,9.0,45,-99.99,,,0.00,763.000000,,2013-05-05 21:11:00,
2013-05-05 18:34:00,57.0,38.0,-100.00,ENE,75,6.0,10.0,48,-99.99,,,0.00,597.000000,,2013-05-05 22:34:00,
2013-05-05 18:42:00,57.0,38.0,-100.00,ENE,75,6.0,10.0,48,-99.99,,,0.00,597.000000,,2013-05-05 22:42:00,
2013-05-05 18:52:00,57.0,38.0,-100.00,ENE,75,6.0,10.0,48,-99.99,,,0.00,597.000000,,2013-05-05 22:52:00,
2013-05-05 19:02:00,57.0,38.0,-100.00,ENE,75,6.0,10.0,48,-99.99,,,0.00,597.000000,,2013-05-05 23:02:00,
2013-05-05 19:11:00,57.0,38.0,-100.00,ENE,75,6.0,10.0,48,-99.99,,,0.00,597.000000,,2013-05-05 23:11:00,
2013-05-05 19:32:00,52.0,36.0,-100.00,ENE,57,5.0,11.0,55,0.00,,,0.00,388.000000,,2013-05-05 23:32:00,
2013-05-05 19:42:00,52.0,36.0,-100.00,ENE,57,5.0,11.0,55,0.00,,,0.00,388.000000,,2013-05-05 23:42:00,
2013-05-05 19:52:00,52.0,36.0,-100.00,ENE,57,5.0,11.0,55,0.00,,,0.00,388.000000,,2013-05-05 23:52:00,
2013-05-05 20:01:00,52.0,36.0,-100.00,ENE,57,5.0,11.0,55,0.00,,,0.00,388.000000,,2013-05-06 00:01:00,
2013-05-05 20:11:00,52.0,36.0,-100.00,ENE,57,5.0,11.0,55,0.00,,,0.00,388.000000,,2013-05-06 00:11:00,
2013-05-05 21:12:00,39.0,33.0,-100.00,NNE,25,4.0,10.0,80,-99.99,,,0.00,26.000000,,2013-05-06 01:12:00,
2013-05-05 21:32:00,39.0,33.0,-100.00,NNE,25,4.0,10.0,80,-99.99,,,0.00,26.000000,,2013-05-06 01:32:00,
2013-05-05 21:42:00,39.0,33.0,-100.00,NNE,25,4.0,10.0,80,-99.99,,,0.00,26.000000,,2013-05-06 01:42:00,
2013-05-05 21:52:00,39.0,33.0,-100.00,NNE,25,4.0,10.0,80,-99.99,,,0.00,26.000000,,2013-05-06 01:52:00,
2013-05-05 22:02:00,39.0,33.0,-100.00,NNE,25,4.0,10.0,80,-99.99,,,0.00,26.000000,,2013-05-06 02:02:00,
2013-05-05 22:32:00,37.0,33.0,-100.00,NNE,23,4.0,8.0,85,0.00,,,0.00,0.000000,,2013-05-06 02:32:00,
2013-05-05 22:42:00,37.0,33.0,-100.00,NNE,23,4.0,8.0,85,0.00,,,0.00,0.000000,,2013-05-06 02:42:00,
2013-05-05 22:52:00,37.0,33.0,-100.00,NNE,23,4.0,8.0,85,0.00,,,0.00,0.000000,,2013-05-06 02:52:00,
2013-05-05 23:02:00,37.0,33.0,-100.00,NNE,23,4.0,8.0,85,0.00,,,0.00,0.000000,,2013-05-06 03:02:00,
2013-05-05 23:11:00,37.0,33.0,-100.00,NNE,23,4.0,8.0,85,0.00,,,0.00,0.000000,,2013-05-06 03:11:00,
2013-05-05 23:12:00,35.0,32.0,-100.00,NE,34,3.0,7.0,88,0.00,,,0.00,0.000000,,2013-05-06 03:12:00,
2013-05-05 23:33:00,35.0,32.0,-100.00,NE,34,3.0,7.0,88,0.00,,,0.00,0.000000,,2013-05-06 03:33:00,
2013-05-05 23:42:00,35.0,32.0,-100.00,NE,34,3.0,7.0,88,0.00,,,0.00,0.000000,,2013-05-06 03:42:00,
2013-05-05 23:52:00,35.0,32.0,-100.00,NE,34,3.0,7.0,88,0.00,,,0.00,0.000000,,2013-05-06 03:52:00,